Terminal Aerodrome Forecast
Issued by NWS Grand Rapids, MI

Home | Current Version | Previous Version | Text Only | Print | Product List | Glossary On
Versions: 1 2 3 4 5 6 7 8 9 10 11 12 13 14 15 16 17 18 19 20 21 22 23 24 25 26 27 28
000
FTUS43 KGRR 191740
TAFGRR
TAF
KGRR 191740Z 1918/2018 29014G21KT P6SM OVC040
     FM192100 28012KT P6SM BKN040
     FM200300 25010KT P6SM BKN100
     FM201200 21010G18KT P6SM SKC=

USA.gov is the U.S. government's official web portal to all federal, state and local government web resources and services.